Bishop, Georgia
Current Conditions -  °F | °C
As of 2:51 PM on Sunday 25 Jan 2015 (Local Time) from KAHN Reporting Station
Clear Clear  
Wind Chill: 60°   Ceiling: Unl
Heat Index: 60°   Visibility: 10mi
Dew Point: 29°   Wind: 8mph
Humidity: 31%   Direction: 210°SSW
Pressure: 29.8"   Gusts: 18mph
Location:  33.82°N, 83.44°W
Report Text: KAHN 251951Z 21007G16KT 10SM CLR 16/M02 A2980 RMK AO2 SLP091 T01561017
Loading
Personal Weather Stations






























Interactive Weather Map New forecast layout! Learn more

10-Day Weather Forecast

Advertisements
Track Severe Weather on mobile